Time;durP1;ratioP1;P1;durP2;ratioP2;P2;SDS_P1;SDS_P2;PMS_P1;PMS_P2;Temp;Humidity;BMP_temperature;BMP_pressure;BME280_temperature;BME280_humidity;BME280_pressure;Samples;Min_cycle;Max_cycle;Signal;HPM_P1;HPM_P2
2023/04/15 00:01:33;;;;;;;;;;;;;;;;;;5078837;28;20332;-61
2023/04/15 00:03:59;;;;;;;;;;;;;;;;;;5085578;28;19931;-61
2023/04/15 00:06:25;;;;;;;;;;;;;;;;;;5078054;28;20352;-61
2023/04/15 00:08:51;;;;;;;;;;;;;;;;;;5053180;28;19932;-61
2023/04/15 00:11:17;;;;;;;;;;;;;;;;;;5070536;28;19921;-61
2023/04/15 00:13:43;;;;;;;;;;;;;;;;;;5076712;28;20416;-61
2023/04/15 00:16:08;;;;;;;;;;;;;;;;;;5056046;28;19960;-62
2023/04/15 00:18:35;;;;;;;;;;;;;;;;;;5074004;28;19928;-61
2023/04/15 00:21:01;;;;;;;;;;;;;;;;;;5075040;28;19965;-61
2023/04/15 00:23:27;;;;;;;;;;;;;;;;;;5079641;28;20016;-61
2023/04/15 00:25:53;;;;;;;;;;;;;;;;;;5079876;28;20015;-61
2023/04/15 00:28:19;;;;;;;;;;;;;;;;;;5077624;28;19937;-62
2023/04/15 00:30:46;;;;;;;;;;;;;;;;;;5059166;28;19935;-61
2023/04/15 00:33:12;;;;;;;;;;;;;;;;;;5074305;28;20015;-61
2023/04/15 00:35:38;;;;;;;;;;;;;;;;;;5056034;28;20020;-61
2023/04/15 00:38:04;;;;;;;;;;;;;;;;;;5017218;28;19972;-61
2023/04/15 00:40:29;;;;;;;;;;;;;;;;;;5032553;28;19976;-62
2023/04/15 00:42:55;;;;;;;;;;;;;;;;;;5032334;28;19921;-62
2023/04/15 00:45:22;;;;;;;;;;;;;;;;;;5044242;28;19996;-64
2023/04/15 00:47:48;;;;;;;;;;;;;;;;;;5002498;28;20015;-62
2023/04/15 00:50:13;;;;;;;;;;;;;;;;;;5004253;28;20359;-62
2023/04/15 00:52:39;;;;;;;;;;;;;;;;;;5042361;28;19947;-62
2023/04/15 00:55:05;;;;;;;;;;;;;;;;;;5041070;28;19925;-62
2023/04/15 00:57:31;;;;;;;;;;;;;;;;;;5047816;28;20314;-62
2023/04/15 00:59:57;;;;;;;;;;;;;;;;;;5018860;28;20374;-62
2023/04/15 01:02:23;;;;;;;;;;;;;;;;;;5051194;28;20133;-62
2023/04/15 01:04:49;;;;;;;;;;;;;;;;;;5041761;28;19925;-62
2023/04/15 01:07:16;;;;;;;;;;;;;;;;;;5029483;28;20283;-61
2023/04/15 01:09:42;;;;;;;;;;;;;;;;;;5036601;28;19924;-61
2023/04/15 01:12:07;;;;;;;;;;;;;;;;;;5043417;28;20020;-62
2023/04/15 01:14:34;;;;;;;;;;;;;;;;;;5023133;28;19921;-62
2023/04/15 01:16:59;;;;;;;;;;;;;;;;;;5021699;28;19935;-62
2023/04/15 01:19:26;;;;;;;;;;;;;;;;;;5042344;28;19921;-62
2023/04/15 01:21:52;;;;;;;;;;;;;;;;;;5048893;28;19924;-62
2023/04/15 01:24:18;;;;;;;;;;;;;;;;;;5037780;28;20370;-62
2023/04/15 01:26:43;;;;;;;;;;;;;;;;;;5042555;28;19927;-62
2023/04/15 01:29:09;;;;;;;;;;;;;;;;;;5041331;28;19964;-63
2023/04/15 01:31:36;;;;;;;;;;;;;;;;;;5041646;28;19925;-62
2023/04/15 01:34:02;;;;;;;;;;;;;;;;;;5024788;28;19921;-62
2023/04/15 01:36:28;;;;;;;;;;;;;;;;;;5028997;28;19936;-62
2023/04/15 01:38:54;;;;;;;;;;;;;;;;;;5064685;28;19921;-62
2023/04/15 01:41:20;;;;;;;;;;;;;;;;;;5045034;28;20035;-62
2023/04/15 01:43:46;;;;;;;;;;;;;;;;;;5043475;28;19927;-62
2023/04/15 01:46:12;;;;;;;;;;;;;;;;;;5045430;28;19943;-61
2023/04/15 01:48:38;;;;;;;;;;;;;;;;;;5052775;28;20383;-62
2023/04/15 01:51:04;;;;;;;;;;;;;;;;;;5063083;28;20408;-62
2023/04/15 01:53:30;;;;;;;;;;;;;;;;;;5060696;28;19924;-62
2023/04/15 01:55:56;;;;;;;;;;;;;;;;;;5049759;28;19989;-62
2023/04/15 01:58:22;;;;;;;;;;;;;;;;;;5034234;28;20545;-61
2023/04/15 02:00:48;;;;;;;;;;;;;;;;;;5057018;28;19928;-62
2023/04/15 02:03:14;;;;;;;;;;;;;;;;;;5056150;28;19924;-62
2023/04/15 02:05:39;;;;;;;;;;;;;;;;;;5063017;28;19920;-62
2023/04/15 02:08:05;;;;;;;;;;;;;;;;;;5029069;28;19921;-62
2023/04/15 02:10:31;;;;;;;;;;;;;;;;;;5062470;28;20343;-60
2023/04/15 02:12:57;;;;;;;;;;;;;;;;;;5040210;28;19924;-62
2023/04/15 02:15:23;;;;;;;;;;;;;;;;;;5032610;28;20015;-62
2023/04/15 02:17:51;;;;;;;;;;;;;;;;;;5056758;28;19992;-61
2023/04/15 02:20:17;;;;;;;;;;;;;;;;;;5035236;28;19963;-61
2023/04/15 02:22:43;;;;;;;;;;;;;;;;;;5054019;28;19960;-62
2023/04/15 02:25:09;;;;;;;;;;;;;;;;;;5048627;28;20016;-62
2023/04/15 02:27:35;;;;;;;;;;;;;;;;;;5050412;28;19925;-62
2023/04/15 02:30:00;;;;;;;;;;;;;;;;;;5049722;28;20012;-62
2023/04/15 02:32:27;;;;;;;;;;;;;;;;;;5044706;28;19928;-61
2023/04/15 02:34:53;;;;;;;;;;;;;;;;;;5083221;28;19929;-62
2023/04/15 02:37:19;;;;;;;;;;;;;;;;;;5019146;28;20171;-61
2023/04/15 02:39:45;;;;;;;;;;;;;;;;;;5060343;28;20337;-62
2023/04/15 02:42:12;;;;;;;;;;;;;;;;;;5070093;28;19924;-62
2023/04/15 02:44:38;;;;;;;;;;;;;;;;;;5068752;28;20340;-62
2023/04/15 02:47:05;;;;;;;;;;;;;;;;;;5079901;28;19924;-62
2023/04/15 02:49:31;;;;;;;;;;;;;;;;;;5043773;28;19932;-62
2023/04/15 02:51:58;;;;;;;;;;;;;;;;;;5087647;28;19920;-61
2023/04/15 02:54:24;;;;;;;;;;;;;;;;;;5072640;28;19975;-61
2023/04/15 02:56:54;;;;;;;;;;;;;;;;;;5061459;28;19924;-61
2023/04/15 02:59:20;;;;;;;;;;;;;;;;;;5054453;28;19928;-62
2023/04/15 03:01:45;;;;;;;;;;;;;;;;;;5070968;28;19927;-62
2023/04/15 03:04:12;;;;;;;;;;;;;;;;;;5069949;28;19920;-62
2023/04/15 03:06:38;;;;;;;;;;;;;;;;;;5081272;28;19929;-62
2023/04/15 03:09:04;;;;;;;;;;;;;;;;;;5059113;28;20402;-61
2023/04/15 03:11:30;;;;;;;;;;;;;;;;;;5077898;28;19928;-61
2023/04/15 03:13:57;;;;;;;;;;;;;;;;;;5082214;28;19946;-62
2023/04/15 03:16:23;;;;;;;;;;;;;;;;;;5072932;28;19958;-62
2023/04/15 03:18:48;;;;;;;;;;;;;;;;;;5074321;28;19955;-62
2023/04/15 03:21:14;;;;;;;;;;;;;;;;;;5083143;28;20403;-62
2023/04/15 03:23:40;;;;;;;;;;;;;;;;;;5067178;28;19925;-60
2023/04/15 03:26:06;;;;;;;;;;;;;;;;;;5070394;28;19920;-62
2023/04/15 03:28:32;;;;;;;;;;;;;;;;;;5057784;28;19955;-61
2023/04/15 03:30:58;;;;;;;;;;;;;;;;;;5071074;28;19928;-61
2023/04/15 03:33:24;;;;;;;;;;;;;;;;;;5071862;28;19932;-61
2023/04/15 03:35:50;;;;;;;;;;;;;;;;;;5075673;28;19924;-61
2023/04/15 03:38:16;;;;;;;;;;;;;;;;;;5072373;28;19924;-62
2023/04/15 03:40:42;;;;;;;;;;;;;;;;;;5068750;28;20293;-62
2023/04/15 03:43:08;;;;;;;;;;;;;;;;;;5083087;28;19930;-62
2023/04/15 03:45:34;;;;;;;;;;;;;;;;;;5086832;28;20289;-62
2023/04/15 03:48:00;;;;;;;;;;;;;;;;;;5048745;28;19927;-62
2023/04/15 03:50:26;;;;;;;;;;;;;;;;;;5076284;28;19928;-61
2023/04/15 03:52:52;;;;;;;;;;;;;;;;;;5072426;28;20270;-62
2023/04/15 03:55:19;;;;;;;;;;;;;;;;;;5083755;28;19931;-60
2023/04/15 03:57:45;;;;;;;;;;;;;;;;;;5081372;28;19961;-61
2023/04/15 04:00:11;;;;;;;;;;;;;;;;;;5089783;28;19919;-61
2023/04/15 04:02:37;;;;;;;;;;;;;;;;;;5073509;28;20437;-62
2023/04/15 04:05:02;;;;;;;;;;;;;;;;;;5086841;28;19927;-62
2023/04/15 04:07:28;;;;;;;;;;;;;;;;;;5081269;28;19996;-61
2023/04/15 04:09:54;;;;;;;;;;;;;;;;;;5072157;28;19939;-61
2023/04/15 04:12:20;;;;;;;;;;;;;;;;;;5055986;28;19920;-61
2023/04/15 04:14:47;;;;;;;;;;;;;;;;;;5070943;28;19939;-61
2023/04/15 04:17:13;;;;;;;;;;;;;;;;;;5076325;28;19920;-61
2023/04/15 04:19:39;;;;;;;;;;;;;;;;;;5081654;28;19931;-63
2023/04/15 04:22:05;;;;;;;;;;;;;;;;;;5086809;28;19927;-61
2023/04/15 04:24:31;;;;;;;;;;;;;;;;;;5082442;28;19931;-61
2023/04/15 04:26:57;;;;;;;;;;;;;;;;;;5051476;28;19920;-61
2023/04/15 04:29:23;;;;;;;;;;;;;;;;;;5077429;28;20382;-62
2023/04/15 04:31:48;;;;;;;;;;;;;;;;;;5074953;28;19932;-62
2023/04/15 04:34:14;;;;;;;;;;;;;;;;;;5070809;28;20378;-62
2023/04/15 04:36:40;;;;;;;;;;;;;;;;;;5045278;28;19940;-61
2023/04/15 04:39:06;;;;;;;;;;;;;;;;;;5053428;28;19928;-61
2023/04/15 04:41:32;;;;;;;;;;;;;;;;;;5050437;28;19924;-61
2023/04/15 04:43:58;;;;;;;;;;;;;;;;;;5034415;28;20003;-60
2023/04/15 04:46:24;;;;;;;;;;;;;;;;;;5029426;28;19921;-60
2023/04/15 04:48:50;;;;;;;;;;;;;;;;;;5045363;28;19979;-61
2023/04/15 04:51:16;;;;;;;;;;;;;;;;;;5043671;28;19924;-60
2023/04/15 04:53:42;;;;;;;;;;;;;;;;;;5040724;28;19932;-61
2023/04/15 04:56:08;;;;;;;;;;;;;;;;;;5047454;28;19932;-61
2023/04/15 04:58:33;;;;;;;;;;;;;;;;;;5021677;28;20007;-61
2023/04/15 05:01:00;;;;;;;;;;;;;;;;;;5044334;28;19925;-61
2023/04/15 05:03:26;;;;;;;;;;;;;;;;;;5033482;28;19928;-61
2023/04/15 05:05:52;;;;;;;;;;;;;;;;;;5025343;28;19921;-61
2023/04/15 05:08:18;;;;;;;;;;;;;;;;;;5032896;28;19975;-60
2023/04/15 05:10:43;;;;;;;;;;;;;;;;;;5024512;28;19933;-61
2023/04/15 05:13:09;;;;;;;;;;;;;;;;;;5044817;28;19921;-61
2023/04/15 05:15:38;;;;;;;;;;;;;;;;;;5041010;28;19947;-61
2023/04/15 05:18:04;;;;;;;;;;;;;;;;;;5048408;28;19927;-61
2023/04/15 05:20:30;;;;;;;;;;;;;;;;;;5045355;28;19932;-62
2023/04/15 05:22:56;;;;;;;;;;;;;;;;;;5044573;28;19920;-62
2023/04/15 05:25:22;;;;;;;;;;;;;;;;;;5025693;28;19920;-62
2023/04/15 05:27:48;;;;;;;;;;;;;;;;;;5031168;28;19935;-62
2023/04/15 05:30:14;;;;;;;;;;;;;;;;;;5053391;28;19935;-62
2023/04/15 05:32:40;;;;;;;;;;;;;;;;;;5046904;28;19925;-62
2023/04/15 05:35:06;;;;;;;;;;;;;;;;;;5053862;28;19928;-62
2023/04/15 05:37:32;;;;;;;;;;;;;;;;;;5066112;28;19929;-62
2023/04/15 05:39:58;;;;;;;;;;;;;;;;;;5062361;28;19931;-62
2023/04/15 05:42:24;;;;;;;;;;;;;;;;;;5084339;28;19924;-62
2023/04/15 05:44:50;;;;;;;;;;;;;;;;;;5068654;28;19921;-62
2023/04/15 05:47:16;;;;;;;;;;;;;;;;;;5054418;28;19932;-62
2023/04/15 05:49:42;;;;;;;;;;;;;;;;;;5074169;28;20038;-62
2023/04/15 05:52:08;;;;;;;;;;;;;;;;;;5049584;28;19931;-62
2023/04/15 05:54:34;;;;;;;;;;;;;;;;;;5061516;28;19924;-62
2023/04/15 05:57:00;;;;;;;;;;;;;;;;;;5068374;28;20317;-60
2023/04/15 05:59:27;;;;;;;;;;;;;;;;;;5091705;28;19927;-61
2023/04/15 06:01:53;;;;;;;;;;;;;;;;;;5078589;28;19924;-61
2023/04/15 06:04:19;;;;;;;;;;;;;;;;;;5080979;22;19931;-63
2023/04/15 06:06:45;;;;;;;;;;;;;;;;;;5081654;28;19924;-63
2023/04/15 06:09:11;;;;;;;;;;;;;;;;;;5092047;28;19927;-64
2023/04/15 06:11:36;;;;;;;;;;;;;;;;;;5094573;28;19923;-65
2023/04/15 06:14:02;;;;;;;;;;;;;;;;;;5091051;28;19982;-65
2023/04/15 06:16:28;;;;;;;;;;;;;;;;;;5074912;28;19973;-64
2023/04/15 06:18:54;;;;;;;;;;;;;;;;;;5086773;28;19943;-64
2023/04/15 06:21:20;;;;;;;;;;;;;;;;;;5074100;28;19928;-64
2023/04/15 06:23:46;;;;;;;;;;;;;;;;;;5088955;28;19991;-65
2023/04/15 06:26:12;;;;;;;;;;;;;;;;;;5091304;28;19979;-64
2023/04/15 06:28:38;;;;;;;;;;;;;;;;;;5094914;28;19978;-64
2023/04/15 06:31:04;;;;;;;;;;;;;;;;;;5094153;28;19928;-65
2023/04/15 06:33:29;;;;;;;;;;;;;;;;;;5086225;28;19934;-65
2023/04/15 06:35:55;;;;;;;;;;;;;;;;;;5082695;28;19978;-66
2023/04/15 06:38:21;;;;;;;;;;;;;;;;;;5099148;28;19966;-66
2023/04/15 06:40:47;;;;;;;;;;;;;;;;;;5089942;28;19924;-65
2023/04/15 06:43:14;;;;;;;;;;;;;;;;;;5091682;28;20476;-66
2023/04/15 06:45:40;;;;;;;;;;;;;;;;;;5089196;28;19924;-66
2023/04/15 06:48:06;;;;;;;;;;;;;;;;;;5111526;28;20586;-66
2023/04/15 06:50:32;;;;;;;;;;;;;;;;;;5096660;28;19924;-65
2023/04/15 06:52:58;;;;;;;;;;;;;;;;;;5088385;28;19920;-66
2023/04/15 06:55:24;;;;;;;;;;;;;;;;;;5090018;28;20296;-65
2023/04/15 06:57:50;;;;;;;;;;;;;;;;;;5088938;28;19920;-66
2023/04/15 07:00:16;;;;;;;;;;;;;;;;;;5113289;28;19994;-66
2023/04/15 07:02:42;;;;;;;;;;;;;;;;;;5104505;28;20345;-66
2023/04/15 07:05:08;;;;;;;;;;;;;;;;;;5055115;28;19928;-66
2023/04/15 07:07:35;;;;;;;;;;;;;;;;;;5073838;28;20368;-66
2023/04/15 07:10:02;;;;;;;;;;;;;;;;;;5073840;28;20374;-65
2023/04/15 07:12:28;;;;;;;;;;;;;;;;;;5071324;28;19920;-64
2023/04/15 07:14:54;;;;;;;;;;;;;;;;;;5080561;28;19920;-65
2023/04/15 07:17:20;;;;;;;;;;;;;;;;;;5109001;28;19928;-65
2023/04/15 07:19:46;;;;;;;;;;;;;;;;;;5073648;28;19920;-64
2023/04/15 07:22:12;;;;;;;;;;;;;;;;;;5073368;28;19947;-65
2023/04/15 07:24:38;;;;;;;;;;;;;;;;;;5055007;28;19979;-65
2023/04/15 07:27:03;;;;;;;;;;;;;;;;;;5055392;28;19928;-65
2023/04/15 07:29:30;;;;;;;;;;;;;;;;;;5073355;28;20600;-65
2023/04/15 07:31:56;;;;;;;;;;;;;;;;;;5085598;28;19962;-65
2023/04/15 07:34:22;;;;;;;;;;;;;;;;;;5077793;28;20378;-65
2023/04/15 07:36:49;;;;;;;;;;;;;;;;;;5073187;28;20003;-64
2023/04/15 07:39:15;;;;;;;;;;;;;;;;;;5073049;28;19950;-65
2023/04/15 07:41:41;;;;;;;;;;;;;;;;;;5073110;28;20050;-65
2023/04/15 07:44:07;;;;;;;;;;;;;;;;;;5055037;28;19921;-65
2023/04/15 07:46:33;;;;;;;;;;;;;;;;;;5054892;28;19935;-65
2023/04/15 07:48:59;;;;;;;;;;;;;;;;;;5086180;28;20324;-65
2023/04/15 07:51:25;;;;;;;;;;;;;;;;;;5082618;28;19924;-64
2023/04/15 07:53:51;;;;;;;;;;;;;;;;;;5054827;28;19921;-65
2023/04/15 07:56:17;;;;;;;;;;;;;;;;;;5072934;28;19924;-66
2023/04/15 07:58:43;;;;;;;;;;;;;;;;;;5072690;28;20392;-66
2023/04/15 08:01:09;;;;;;;;;;;;;;;;;;5072977;28;19924;-65
2023/04/15 08:03:35;;;;;;;;;;;;;;;;;;5072863;28;19921;-66
2023/04/15 08:06:01;;;;;;;;;;;;;;;;;;5083071;28;20535;-66
2023/04/15 08:08:27;;;;;;;;;;;;;;;;;;5054335;28;19955;-66
2023/04/15 08:10:53;;;;;;;;;;;;;;;;;;5072657;28;19970;-66
2023/04/15 08:13:19;;;;;;;;;;;;;;;;;;5072766;28;19929;-65
2023/04/15 08:15:45;;;;;;;;;;;;;;;;;;5071996;28;19920;-65
2023/04/15 08:18:11;;;;;;;;;;;;;;;;;;5111243;28;19927;-65
2023/04/15 08:20:37;;;;;;;;;;;;;;;;;;5106699;28;19946;-65
2023/04/15 08:23:03;;;;;;;;;;;;;;;;;;5086057;28;20296;-65
2023/04/15 08:25:29;;;;;;;;;;;;;;;;;;5090963;28;19943;-65
2023/04/15 08:27:56;;;;;;;;;;;;;;;;;;5092028;28;19945;-66
2023/04/15 08:30:22;;;;;;;;;;;;;;;;;;5092691;28;19931;-65
2023/04/15 08:32:48;;;;;;;;;;;;;;;;;;5092148;28;20484;-65
2023/04/15 08:35:14;;;;;;;;;;;;;;;;;;5092275;28;20002;-65
2023/04/15 08:37:40;;;;;;;;;;;;;;;;;;5073717;28;19930;-65
2023/04/15 08:40:07;;;;;;;;;;;;;;;;;;5073382;28;19927;-65
2023/04/15 08:42:33;;;;;;;;;;;;;;;;;;5085357;28;19927;-65
2023/04/15 08:45:00;;;;;;;;;;;;;;;;;;5053335;28;20095;-65
2023/04/15 08:47:26;;;;;;;;;;;;;;;;;;5063703;28;19970;-65
2023/04/15 08:49:52;;;;;;;;;;;;;;;;;;5071003;28;19931;-65
2023/04/15 08:52:18;;;;;;;;;;;;;;;;;;5053211;28;19970;-65
2023/04/15 08:54:44;;;;;;;;;;;;;;;;;;5052913;28;20404;-65
2023/04/15 08:57:10;;;;;;;;;;;;;;;;;;5086204;28;19998;-66
2023/04/15 08:59:36;;;;;;;;;;;;;;;;;;5072741;28;19924;-66
2023/04/15 09:02:02;;;;;;;;;;;;;;;;;;5071140;28;20323;-65
2023/04/15 09:04:28;;;;;;;;;;;;;;;;;;5052908;28;19929;-65
2023/04/15 09:06:54;;;;;;;;;;;;;;;;;;5053082;28;20416;-65
2023/04/15 09:09:20;;;;;;;;;;;;;;;;;;5053619;28;19924;-65
2023/04/15 09:11:48;;;;;;;;;;;;;;;;;;5071919;28;19928;-66
2023/04/15 09:14:15;;;;;;;;;;;;;;;;;;5076443;28;19921;-65
2023/04/15 09:16:41;;;;;;;;;;;;;;;;;;5101296;28;20432;-65
2023/04/15 09:19:07;;;;;;;;;;;;;;;;;;5093594;28;19974;-65
2023/04/15 09:21:34;;;;;;;;;;;;;;;;;;5112377;28;19927;-65
2023/04/15 09:23:59;;;;;;;;;;;;;;;;;;5093857;28;19927;-65
2023/04/15 09:26:25;;;;;;;;;;;;;;;;;;5111946;28;19920;-65
2023/04/15 09:28:51;;;;;;;;;;;;;;;;;;5112061;28;19920;-65
2023/04/15 09:31:17;;;;;;;;;;;;;;;;;;5078868;28;19925;-66
2023/04/15 09:33:43;;;;;;;;;;;;;;;;;;5086853;28;19923;-66
2023/04/15 09:36:09;;;;;;;;;;;;;;;;;;5091857;28;20435;-66
2023/04/15 09:38:35;;;;;;;;;;;;;;;;;;5087803;28;20014;-65
2023/04/15 09:41:01;;;;;;;;;;;;;;;;;;5088333;28;20106;-65
2023/04/15 09:43:27;;;;;;;;;;;;;;;;;;5073340;28;20387;-65
2023/04/15 09:45:53;;;;;;;;;;;;;;;;;;5091355;28;19920;-66
2023/04/15 09:48:19;;;;;;;;;;;;;;;;;;5065646;28;19925;-66
2023/04/15 09:50:45;;;;;;;;;;;;;;;;;;5073402;28;19924;-66
2023/04/15 09:53:11;;;;;;;;;;;;;;;;;;5091735;28;19927;-66
2023/04/15 09:55:37;;;;;;;;;;;;;;;;;;5091607;28;19920;-66
2023/04/15 09:58:03;;;;;;;;;;;;;;;;;;5091584;28;19924;-66
2023/04/15 10:00:29;;;;;;;;;;;;;;;;;;5091443;28;19924;-66
2023/04/15 10:02:55;;;;;;;;;;;;;;;;;;5085626;28;20316;-65
2023/04/15 10:05:22;;;;;;;;;;;;;;;;;;5087832;28;19924;-65
2023/04/15 10:07:48;;;;;;;;;;;;;;;;;;5068657;28;19946;-66
2023/04/15 10:10:14;;;;;;;;;;;;;;;;;;5070938;28;19920;-66
2023/04/15 10:12:40;;;;;;;;;;;;;;;;;;5070936;28;19928;-65
2023/04/15 10:15:06;;;;;;;;;;;;;;;;;;5052950;28;19932;-66
2023/04/15 10:17:34;;;;;;;;;;;;;;;;;;5100711;28;20003;-66
2023/04/15 10:20:00;;;;;;;;;;;;;;;;;;5077516;28;19929;-66
2023/04/15 10:22:26;;;;;;;;;;;;;;;;;;5092517;28;19920;-65
2023/04/15 10:24:52;;;;;;;;;;;;;;;;;;5094896;28;20297;-66
2023/04/15 10:27:18;;;;;;;;;;;;;;;;;;5094894;28;19928;-65
2023/04/15 10:29:44;;;;;;;;;;;;;;;;;;5094800;28;19927;-65
2023/04/15 10:32:10;;;;;;;;;;;;;;;;;;5094987;28;20273;-65
2023/04/15 10:34:36;;;;;;;;;;;;;;;;;;5094606;28;19924;-66
2023/04/15 10:37:05;;;;;;;;;;;;;;;;;;5073588;28;19920;-65
2023/04/15 10:39:32;;;;;;;;;;;;;;;;;;5091670;28;20362;-66
2023/04/15 10:41:58;;;;;;;;;;;;;;;;;;5094627;28;19974;-65
2023/04/15 10:44:24;;;;;;;;;;;;;;;;;;5076222;28;19920;-66
2023/04/15 10:46:50;;;;;;;;;;;;;;;;;;5076045;28;19943;-66
2023/04/15 10:49:15;;;;;;;;;;;;;;;;;;5076331;28;19935;-65
2023/04/15 10:51:41;;;;;;;;;;;;;;;;;;5094315;28;19924;-65
2023/04/15 10:54:07;;;;;;;;;;;;;;;;;;5077430;28;19927;-65
2023/04/15 10:56:33;;;;;;;;;;;;;;;;;;5092590;28;20583;-65
2023/04/15 10:59:00;;;;;;;;;;;;;;;;;;5075957;28;19942;-66
2023/04/15 11:01:26;;;;;;;;;;;;;;;;;;5094277;28;20011;-65
2023/04/15 11:03:51;;;;;;;;;;;;;;;;;;5075693;28;20377;-65
2023/04/15 11:06:17;;;;;;;;;;;;;;;;;;5094136;28;19920;-65
2023/04/15 11:08:43;;;;;;;;;;;;;;;;;;5094113;28;19994;-65
2023/04/15 11:11:09;;;;;;;;;;;;;;;;;;5074786;28;19993;-66
2023/04/15 11:13:35;;;;;;;;;;;;;;;;;;5092649;28;19920;-65
2023/04/15 11:16:01;;;;;;;;;;;;;;;;;;5094155;28;19962;-65
2023/04/15 11:18:27;;;;;;;;;;;;;;;;;;5103369;28;20630;-64
2023/04/15 11:20:54;;;;;;;;;;;;;;;;;;5114168;28;20014;-65
2023/04/15 11:23:20;;;;;;;;;;;;;;;;;;5078830;28;19928;-65
2023/04/15 11:25:47;;;;;;;;;;;;;;;;;;5106125;28;19927;-65
2023/04/15 11:28:13;;;;;;;;;;;;;;;;;;5093600;28;19935;-65
2023/04/15 11:30:39;;;;;;;;;;;;;;;;;;5093190;28;19928;-65
2023/04/15 11:33:05;;;;;;;;;;;;;;;;;;5093377;28;19924;-65
2023/04/15 11:35:31;;;;;;;;;;;;;;;;;;5093174;28;19953;-66
2023/04/15 11:37:57;;;;;;;;;;;;;;;;;;5092550;28;19930;-66
2023/04/15 11:40:25;;;;;;;;;;;;;;;;;;5104590;28;22256;-65
2023/04/15 11:42:51;;;;;;;;;;;;;;;;;;5102401;28;20280;-65
2023/04/15 11:45:17;;;;;;;;;;;;;;;;;;5073373;28;19920;-65
2023/04/15 11:47:43;;;;;;;;;;;;;;;;;;5092825;28;19993;-65
2023/04/15 11:50:09;;;;;;;;;;;;;;;;;;5093027;28;20492;-66
2023/04/15 11:52:35;;;;;;;;;;;;;;;;;;5069046;28;20281;-65
2023/04/15 11:55:01;;;;;;;;;;;;;;;;;;5093114;28;19927;-65
2023/04/15 11:57:27;;;;;;;;;;;;;;;;;;5092960;28;19924;-65
2023/04/15 11:59:53;;;;;;;;;;;;;;;;;;5075015;28;19970;-65
2023/04/15 12:02:19;;;;;;;;;;;;;;;;;;5072825;28;19926;-65
2023/04/15 12:04:45;;;;;;;;;;;;;;;;;;5092473;28;19931;-65
2023/04/15 12:07:11;;;;;;;;;;;;;;;;;;5092711;28;19928;-65
2023/04/15 12:09:38;;;;;;;;;;;;;;;;;;5087328;28;19921;-65
2023/04/15 12:12:04;;;;;;;;;;;;;;;;;;5060059;28;19924;-65
2023/04/15 12:14:30;;;;;;;;;;;;;;;;;;5058103;28;20270;-65
2023/04/15 12:16:57;;;;;;;;;;;;;;;;;;5073661;28;20057;-64
2023/04/15 12:19:23;;;;;;;;;;;;;;;;;;5099229;28;19931;-64
2023/04/15 12:21:49;;;;;;;;;;;;;;;;;;5092419;28;19926;-65
2023/04/15 12:24:14;;;;;;;;;;;;;;;;;;5092501;28;19920;-65
2023/04/15 12:26:41;;;;;;;;;;;;;;;;;;5092455;28;19927;-65
2023/04/15 12:29:09;;;;;;;;;;;;;;;;;;5092552;28;19963;-65
2023/04/15 12:31:35;;;;;;;;;;;;;;;;;;5080632;28;19925;-66
2023/04/15 12:34:02;;;;;;;;;;;;;;;;;;5070710;28;20828;-65
2023/04/15 12:36:29;;;;;;;;;;;;;;;;;;5072720;28;19928;-65
2023/04/15 12:38:55;;;;;;;;;;;;;;;;;;5092215;28;19951;-65
2023/04/15 12:41:21;;;;;;;;;;;;;;;;;;5072499;28;19927;-65
2023/04/15 12:43:47;;;;;;;;;;;;;;;;;;5072012;28;19970;-65
2023/04/15 12:46:13;;;;;;;;;;;;;;;;;;5072016;28;19920;-64
2023/04/15 12:48:39;;;;;;;;;;;;;;;;;;5071873;28;19924;-66
2023/04/15 12:51:05;;;;;;;;;;;;;;;;;;5072097;28;20050;-65
2023/04/15 12:53:30;;;;;;;;;;;;;;;;;;5073039;28;20350;-65
2023/04/15 12:55:56;;;;;;;;;;;;;;;;;;5092288;28;19927;-65
2023/04/15 12:58:22;;;;;;;;;;;;;;;;;;5072542;28;19920;-65
2023/04/15 13:00:49;;;;;;;;;;;;;;;;;;5092247;28;19924;-65
2023/04/15 13:03:15;;;;;;;;;;;;;;;;;;5091805;28;20449;-65
2023/04/15 13:05:40;;;;;;;;;;;;;;;;;;5091857;28;19931;-65
2023/04/15 13:08:06;;;;;;;;;;;;;;;;;;5073178;28;20007;-65
2023/04/15 13:10:32;;;;;;;;;;;;;;;;;;5080574;28;19925;-65
2023/04/15 13:12:58;;;;;;;;;;;;;;;;;;5082779;28;19943;-65
2023/04/15 13:15:24;;;;;;;;;;;;;;;;;;5071712;28;20374;-65
2023/04/15 13:17:50;;;;;;;;;;;;;;;;;;5071524;28;19994;-65
2023/04/15 13:20:16;;;;;;;;;;;;;;;;;;5083451;28;19928;-65
2023/04/15 13:22:42;;;;;;;;;;;;;;;;;;5112285;28;19919;-65
2023/04/15 13:25:08;;;;;;;;;;;;;;;;;;5093682;28;19920;-65
2023/04/15 13:27:34;;;;;;;;;;;;;;;;;;5108127;28;19928;-65
2023/04/15 13:30:00;;;;;;;;;;;;;;;;;;5070872;28;20354;-65
2023/04/15 13:32:26;;;;;;;;;;;;;;;;;;5071329;28;20007;-65
2023/04/15 13:34:53;;;;;;;;;;;;;;;;;;5090744;28;19963;-65
2023/04/15 13:37:19;;;;;;;;;;;;;;;;;;5105483;28;19928;-65
2023/04/15 13:39:45;;;;;;;;;;;;;;;;;;5093073;28;19919;-65
2023/04/15 13:42:11;;;;;;;;;;;;;;;;;;5111281;28;19935;-65
2023/04/15 13:44:37;;;;;;;;;;;;;;;;;;5090054;28;20471;-65
2023/04/15 13:47:03;;;;;;;;;;;;;;;;;;5073035;28;20242;-64
2023/04/15 13:49:29;;;;;;;;;;;;;;;;;;5035830;28;20348;-65
2023/04/15 13:51:55;;;;;;;;;;;;;;;;;;5069761;28;19928;-65
2023/04/15 13:54:21;;;;;;;;;;;;;;;;;;5055261;28;19969;-65
2023/04/15 13:56:47;;;;;;;;;;;;;;;;;;5074105;28;20011;-65
2023/04/15 13:59:13;;;;;;;;;;;;;;;;;;5040617;28;20015;-64
2023/04/15 14:01:40;;;;;;;;;;;;;;;;;;5059366;28;20443;-64
2023/04/15 14:04:06;;;;;;;;;;;;;;;;;;5076891;28;19931;-64
2023/04/15 14:06:31;;;;;;;;;;;;;;;;;;5095104;28;19923;-64
2023/04/15 14:08:57;;;;;;;;;;;;;;;;;;5095147;28;19927;-65
2023/04/15 14:11:23;;;;;;;;;;;;;;;;;;5075059;28;19921;-65
2023/04/15 14:13:49;;;;;;;;;;;;;;;;;;5074794;28;19943;-65
2023/04/15 14:16:15;;;;;;;;;;;;;;;;;;5076847;28;19924;-64
2023/04/15 14:18:41;;;;;;;;;;;;;;;;;;5074594;28;19938;-65
2023/04/15 14:21:07;;;;;;;;;;;;;;;;;;5102069;28;19919;-65
2023/04/15 14:23:33;;;;;;;;;;;;;;;;;;5114820;28;20353;-65
2023/04/15 14:25:59;;;;;;;;;;;;;;;;;;5097006;28;19923;-64
2023/04/15 14:28:25;;;;;;;;;;;;;;;;;;5115066;28;19928;-65
2023/04/15 14:30:50;;;;;;;;;;;;;;;;;;5115506;28;20010;-65
2023/04/15 14:33:16;;;;;;;;;;;;;;;;;;5115015;28;19926;-66
2023/04/15 14:35:42;;;;;;;;;;;;;;;;;;5089991;28;20023;-65
2023/04/15 14:38:09;;;;;;;;;;;;;;;;;;5091410;28;19931;-64
2023/04/15 14:40:35;;;;;;;;;;;;;;;;;;5094443;28;19920;-65
2023/04/15 14:43:01;;;;;;;;;;;;;;;;;;5094767;28;19931;-65
2023/04/15 14:45:27;;;;;;;;;;;;;;;;;;5094412;28;19924;-65
2023/04/15 14:47:53;;;;;;;;;;;;;;;;;;5094351;28;20002;-64
2023/04/15 14:50:19;;;;;;;;;;;;;;;;;;5076030;28;19967;-65
2023/04/15 14:52:45;;;;;;;;;;;;;;;;;;5062339;28;19924;-65
2023/04/15 14:55:10;;;;;;;;;;;;;;;;;;5094307;28;19931;-65
2023/04/15 14:57:36;;;;;;;;;;;;;;;;;;5094415;28;20342;-64
2023/04/15 15:00:02;;;;;;;;;;;;;;;;;;5075906;28;19959;-65
2023/04/15 15:02:28;;;;;;;;;;;;;;;;;;5075857;28;20359;-64
2023/04/15 15:04:54;;;;;;;;;;;;;;;;;;5093121;28;19928;-64
2023/04/15 15:07:20;;;;;;;;;;;;;;;;;;5089136;28;19986;-65
2023/04/15 15:09:46;;;;;;;;;;;;;;;;;;5079855;28;19924;-65
2023/04/15 15:12:12;;;;;;;;;;;;;;;;;;5074680;28;19924;-64
2023/04/15 15:14:38;;;;;;;;;;;;;;;;;;5073774;28;20447;-64
2023/04/15 15:17:04;;;;;;;;;;;;;;;;;;5073557;28;19943;-64
2023/04/15 15:19:30;;;;;;;;;;;;;;;;;;5055613;28;20015;-64
2023/04/15 15:21:56;;;;;;;;;;;;;;;;;;5093290;28;19954;-64
2023/04/15 15:24:21;;;;;;;;;;;;;;;;;;5113662;28;19923;-65
2023/04/15 15:26:47;;;;;;;;;;;;;;;;;;5077270;28;20365;-64
2023/04/15 15:29:13;;;;;;;;;;;;;;;;;;5093581;28;19965;-64
2023/04/15 15:31:39;;;;;;;;;;;;;;;;;;5075606;28;19951;-64
2023/04/15 15:34:05;;;;;;;;;;;;;;;;;;5093471;28;19959;-65
2023/04/15 15:36:31;;;;;;;;;;;;;;;;;;5111628;28;19969;-64
2023/04/15 15:38:58;;;;;;;;;;;;;;;;;;5114014;28;20049;-64
2023/04/15 15:41:24;;;;;;;;;;;;;;;;;;5099853;28;19924;-64
2023/04/15 15:43:50;;;;;;;;;;;;;;;;;;5074904;28;20251;-64
2023/04/15 15:46:16;;;;;;;;;;;;;;;;;;5087162;28;19969;-66
2023/04/15 15:48:42;;;;;;;;;;;;;;;;;;5085598;28;19951;-66
2023/04/15 15:51:08;;;;;;;;;;;;;;;;;;5089792;28;19919;-65
2023/04/15 15:53:34;;;;;;;;;;;;;;;;;;5092234;28;19989;-65
2023/04/15 15:56:00;;;;;;;;;;;;;;;;;;5087641;28;19931;-65
2023/04/15 15:58:26;;;;;;;;;;;;;;;;;;5098942;28;19963;-65
2023/04/15 16:00:52;;;;;;;;;;;;;;;;;;5092655;28;19970;-65
2023/04/15 16:03:17;;;;;;;;;;;;;;;;;;5092398;28;19924;-65
2023/04/15 16:05:44;;;;;;;;;;;;;;;;;;5090837;28;19928;-65
2023/04/15 16:08:10;;;;;;;;;;;;;;;;;;5089922;28;20015;-65
2023/04/15 16:10:36;;;;;;;;;;;;;;;;;;5064464;28;20006;-65
2023/04/15 16:13:02;;;;;;;;;;;;;;;;;;5087241;28;20019;-66
2023/04/15 16:15:28;;;;;;;;;;;;;;;;;;5082940;28;19924;-65
2023/04/15 16:17:54;;;;;;;;;;;;;;;;;;5077694;28;20010;-66
2023/04/15 16:20:20;;;;;;;;;;;;;;;;;;5073711;28;19924;-65
2023/04/15 16:22:46;;;;;;;;;;;;;;;;;;5091296;28;20373;-66
2023/04/15 16:25:12;;;;;;;;;;;;;;;;;;5058832;28;19927;-65
2023/04/15 16:27:38;;;;;;;;;;;;;;;;;;5091192;28;19934;-65
2023/04/15 16:30:04;;;;;;;;;;;;;;;;;;5088224;28;19920;-65
2023/04/15 16:32:29;;;;;;;;;;;;;;;;;;5083639;28;19928;-65
2023/04/15 16:34:55;;;;;;;;;;;;;;;;;;5084480;28;20288;-65
2023/04/15 16:37:21;;;;;;;;;;;;;;;;;;5090208;28;19924;-65